Time;durP1;ratioP1;P1;durP2;ratioP2;P2;SDS_P1;SDS_P2;PMS_P1;PMS_P2;Temp;Humidity;BMP_temperature;BMP_pressure;BME280_temperature;BME280_humidity;BME280_pressure;Samples;Min_cycle;Max_cycle;Signal;HPM_P1;HPM_P2
2021/01/20 00:01:58;;;;;;;0.95;0.47;;;5.10;75.10;;;;;;6193678;23;20008;-85
2021/01/20 00:04:24;;;;;;;0.40;0.40;;;5.10;75.50;;;;;;6192719;23;20127;-86
2021/01/20 00:06:50;;;;;;;0.60;0.50;;;5.00;75.90;;;;;;6194124;23;20015;-84
2021/01/20 00:09:16;;;;;;;1.08;0.40;;;5.00;76.30;;;;;;6193585;23;20091;-83
2021/01/20 00:11:42;;;;;;;0.68;0.50;;;5.00;76.60;;;;;;6193928;23;20015;-85
2021/01/20 00:14:08;;;;;;;0.60;0.32;;;4.90;76.80;;;;;;6220661;23;20001;-85
2021/01/20 00:16:34;;;;;;;0.63;0.52;;;4.80;77.30;;;;;;6193808;23;20097;-84
2021/01/20 00:19:00;;;;;;;0.55;0.45;;;4.70;77.80;;;;;;6221182;23;20000;-84
2021/01/20 00:21:25;;;;;;;1.48;0.45;;;4.70;78.40;;;;;;6221459;23;20035;-85
2021/01/20 00:23:51;;;;;;;1.23;0.77;;;4.70;78.60;;;;;;6195366;23;20260;-85
2021/01/20 00:26:17;;;;;;;0.50;0.43;;;4.60;78.70;;;;;;6194573;23;20027;-84
2021/01/20 00:28:43;;;;;;;0.65;0.40;;;4.60;79.00;;;;;;6194155;23;20008;-84
2021/01/20 00:31:08;;;;;;;1.05;0.47;;;4.50;79.30;;;;;;6194429;23;20004;-84
2021/01/20 00:33:34;;;;;;;0.30;0.30;;;4.50;79.50;;;;;;6193409;23;20332;-83
2021/01/20 00:36:00;;;;;;;0.52;0.30;;;4.40;80.00;;;;;;6194714;23;20016;-84
2021/01/20 00:38:26;;;;;;;0.50;0.40;;;4.40;90.70;;;;;;6220363;23;20000;-85
2021/01/20 00:40:52;;;;;;;0.57;0.50;;;;;;;;;;6194570;23;20031;-85
2021/01/20 00:43:18;;;;;;;0.88;0.60;;;;;;;;;;6218381;23;20091;-85
2021/01/20 00:45:43;;;;;;;0.63;0.35;;;4.30;95.90;;;;;;6218132;23;20000;-85
2021/01/20 00:48:10;;;;;;;1.42;0.82;;;;;;;;;;6194179;23;20066;-85
2021/01/20 00:50:36;;;;;;;0.75;0.40;;;4.30;96.00;;;;;;6220527;23;20452;-84
2021/01/20 00:53:02;;;;;;;0.75;0.47;;;4.20;94.00;;;;;;6193262;23;20012;-83
2021/01/20 00:55:28;;;;;;;0.55;0.55;;;4.20;95.20;;;;;;6194036;23;19996;-82
2021/01/20 00:57:54;;;;;;;0.68;0.40;;;4.20;95.90;;;;;;6221329;23;20000;-85
2021/01/20 01:00:20;;;;;;;0.52;0.30;;;4.10;96.40;;;;;;6194546;23;20005;-84
2021/01/20 01:02:46;;;;;;;0.88;0.45;;;4.10;95.90;;;;;;6195568;23;20087;-85
2021/01/20 01:05:12;;;;;;;0.75;0.20;;;4.10;95.70;;;;;;6221760;23;20004;-84
2021/01/20 01:07:38;;;;;;;0.40;0.30;;;4.00;95.60;;;;;;6221051;23;20000;-85
2021/01/20 01:10:04;;;;;;;1.55;0.60;;;4.00;95.80;;;;;;6196214;23;20011;-85
2021/01/20 01:12:30;;;;;;;0.77;0.30;;;4.00;96.20;;;;;;6194964;23;20027;-84
2021/01/20 01:14:56;;;;;;;0.40;0.30;;;3.90;97.80;;;;;;6194679;23;20005;-84
2021/01/20 01:17:21;;;;;;;1.67;0.40;;;3.90;97.50;;;;;;6195337;23;20384;-85
2021/01/20 01:19:47;;;;;;;0.47;0.45;;;3.80;97.20;;;;;;6222413;23;20044;-84
2021/01/20 01:22:13;;;;;;;1.48;0.52;;;3.80;97.10;;;;;;6196876;23;20090;-84
2021/01/20 01:24:39;;;;;;;1.27;0.70;;;3.80;97.30;;;;;;6222551;23;20027;-85
2021/01/20 01:27:05;;;;;;;0.65;0.52;;;3.80;94.70;;;;;;6224321;23;20014;-85
2021/01/20 01:29:31;;;;;;;0.30;0.20;;;3.70;93.20;;;;;;6223222;23;20024;-85
2021/01/20 01:31:56;;;;;;;1.95;0.60;;;3.70;96.50;;;;;;6221783;23;20000;-85
2021/01/20 01:34:23;;;;;;;0.60;0.40;;;3.70;96.40;;;;;;6201435;23;20080;-82
2021/01/20 01:36:48;;;;;;;1.00;0.40;;;3.60;96.10;;;;;;6210501;23;20008;-82
2021/01/20 01:39:14;;;;;;;1.70;0.60;;;3.60;96.00;;;;;;6222589;23;20076;-85
2021/01/20 01:41:41;;;;;;;0.20;0.20;;;3.60;96.00;;;;;;6221647;23;20000;-84
2021/01/20 01:44:07;;;;;;;0.30;0.30;;;3.50;95.90;;;;;;6221788;23;20001;-85
2021/01/20 01:46:33;;;;;;;1.40;0.60;;;3.40;93.10;;;;;;6195057;23;20016;-85
2021/01/20 01:48:59;;;;;;;0.30;0.20;;;3.40;94.30;;;;;;6194715;23;20055;-85
2021/01/20 01:51:26;;;;;;;0.20;0.20;;;3.40;92.80;;;;;;6199213;23;20000;-86
2021/01/20 01:53:53;;;;;;;0.55;0.30;;;3.40;96.10;;;;;;6226748;23;20008;-83
2021/01/20 01:56:20;;;;;;;0.73;0.30;;;3.40;97.30;;;;;;6236112;23;19985;-82
2021/01/20 01:58:51;;;;;;;0.22;0.22;;;3.40;93.70;;;;;;6238708;23;20079;-83
2021/01/20 02:01:17;;;;;;;0.38;0.22;;;3.30;97.10;;;;;;6234808;23;20061;-85
2021/01/20 02:03:43;;;;;;;0.40;0.30;;;3.30;94.10;;;;;;6196074;23;20296;-85
2021/01/20 02:06:08;;;;;;;0.28;0.22;;;3.20;96.10;;;;;;6196944;23;20001;-84
2021/01/20 02:08:34;;;;;;;0.77;0.35;;;3.20;95.90;;;;;;6198162;23;20008;-84
2021/01/20 02:11:21;;;;;;;0.50;0.20;;;3.20;95.40;;;;;;6194785;23;20001;-83
2021/01/20 02:14:07;;;;;;;1.75;0.40;;;3.20;96.70;;;;;;6221342;23;19997;-84
2021/01/20 02:16:37;;;;;;;0.25;0.25;;;3.20;97.90;;;;;;6196408;23;20011;-83
2021/01/20 02:19:09;;;;;;;0.43;0.30;;;3.20;98.10;;;;;;6200820;23;20012;-83
2021/01/20 02:21:54;;;;;;;1.02;0.30;;;3.10;98.60;;;;;;6230366;23;20001;-82
2021/01/20 02:24:26;;;;;;;1.60;0.55;;;3.20;98.90;;;;;;6208580;23;20011;-84
2021/01/20 02:27:08;;;;;;;0.40;0.40;;;3.00;98.90;;;;;;6194565;23;20001;-85
2021/01/20 02:30:01;;;;;;;1.17;0.50;;;3.10;99.80;;;;;;6195269;23;20235;-85
2021/01/20 02:32:27;;;;;;;0.40;0.40;;;;;;;;;;6219226;23;20079;-85
2021/01/20 02:34:54;;;;;;;0.77;0.40;;;3.00;91.60;;;;;;6220059;23;20099;-83
2021/01/20 02:37:22;;;;;;;0.20;0.20;;;3.10;91.40;;;;;;6195983;23;20000;-85
2021/01/20 02:39:48;;;;;;;0.35;0.35;;;3.10;90.90;;;;;;6195514;23;20005;-85
2021/01/20 02:42:14;;;;;;;0.70;0.50;;;3.20;90.40;;;;;;6196018;23;20035;-83
2021/01/20 02:44:40;;;;;;;0.38;0.30;;;3.30;89.40;;;;;;6196034;23;20087;-85
2021/01/20 02:47:10;;;;;;;0.75;0.52;;;3.40;88.00;;;;;;6223141;23;20009;-84
2021/01/20 02:49:37;;;;;;;0.30;0.30;;;3.60;99.10;;;;;;6196813;23;20463;-85
2021/01/20 02:52:26;;;;;;;0.60;0.20;;;3.70;95.60;;;;;;6197369;23;20020;-83
2021/01/20 02:54:54;;;;;;;0.38;0.35;;;3.60;84.70;;;;;;6197731;23;20059;-83
2021/01/20 02:57:20;;;;;;;0.40;0.32;;;3.60;84.00;;;;;;6197905;23;20425;-85
2021/01/20 02:59:51;;;;;;;0.63;0.30;;;3.60;83.30;;;;;;6197302;23;20008;-84
2021/01/20 03:02:19;;;;;;;0.68;0.45;;;3.60;83.10;;;;;;6196174;23;20015;-85
2021/01/20 03:04:47;;;;;;;1.17;0.40;;;3.60;82.90;;;;;;6224672;23;20319;-82
2021/01/20 03:07:14;;;;;;;0.28;0.25;;;3.60;82.80;;;;;;6223153;23;20000;-84
2021/01/20 03:09:40;;;;;;;0.98;0.50;;;3.60;82.80;;;;;;6223656;23;20027;-84
2021/01/20 03:12:06;;;;;;;0.82;0.50;;;3.60;82.70;;;;;;6223080;23;20372;-84
2021/01/20 03:14:33;;;;;;;0.88;0.25;;;3.60;82.70;;;;;;6196954;23;20000;-84
2021/01/20 03:16:59;;;;;;;0.57;0.30;;;3.60;83.00;;;;;;6198360;23;20421;-86
2021/01/20 03:19:24;;;;;;;0.57;0.35;;;3.60;83.00;;;;;;6196758;23;20031;-84
2021/01/20 03:21:50;;;;;;;0.28;0.20;;;3.50;83.00;;;;;;6197045;23;20004;-84
2021/01/20 03:24:15;;;;;;;0.65;0.30;;;3.50;82.90;;;;;;6197227;23;20439;-85
2021/01/20 03:26:42;;;;;;;0.32;0.30;;;3.50;83.00;;;;;;6196889;23;20009;-84
2021/01/20 03:29:07;;;;;;;0.82;0.43;;;3.50;83.20;;;;;;6196820;23;20020;-84
2021/01/20 03:31:33;;;;;;;0.57;0.22;;;3.40;83.30;;;;;;6224420;23;20020;-85
2021/01/20 03:34:00;;;;;;;0.40;0.38;;;3.40;83.60;;;;;;6196571;23;20364;-84
2021/01/20 03:36:26;;;;;;;1.00;0.70;;;3.40;83.80;;;;;;6196807;23;20069;-85
2021/01/20 03:38:52;;;;;;;0.38;0.28;;;3.40;84.00;;;;;;6195252;23;19997;-85
2021/01/20 03:41:17;;;;;;;0.65;0.35;;;3.40;84.10;;;;;;6194896;23;20009;-85
2021/01/20 03:43:43;;;;;;;0.90;0.40;;;3.40;84.20;;;;;;6222089;23;20001;-85
2021/01/20 03:46:08;;;;;;;0.75;0.20;;;3.40;84.10;;;;;;6195611;23;20034;-84
2021/01/20 03:48:34;;;;;;;0.43;0.30;;;3.40;84.20;;;;;;6195526;23;20004;-85
2021/01/20 03:51:00;;;;;;;0.35;0.35;;;3.40;84.30;;;;;;6199924;23;20004;-82
2021/01/20 03:53:25;;;;;;;1.42;0.38;;;3.40;84.40;;;;;;6204784;23;20062;-84
2021/01/20 03:55:51;;;;;;;0.45;0.40;;;3.30;84.60;;;;;;6194043;23;20036;-85
2021/01/20 03:58:17;;;;;;;0.35;0.22;;;3.30;84.80;;;;;;6219545;23;19996;-83
2021/01/20 04:00:43;;;;;;;0.20;0.20;;;3.30;85.00;;;;;;6191875;23;20000;-82
2021/01/20 04:03:08;;;;;;;0.47;0.32;;;3.30;85.10;;;;;;6194015;23;20004;-83
2021/01/20 04:05:34;;;;;;;1.33;0.80;;;3.30;85.10;;;;;;6194332;23;20039;-85
2021/01/20 04:08:00;;;;;;;0.45;0.20;;;3.30;85.60;;;;;;6193447;23;20393;-85
2021/01/20 04:10:26;;;;;;;0.52;0.43;;;3.30;85.40;;;;;;6192102;23;20008;-85
2021/01/20 04:12:53;;;;;;;0.90;0.40;;;3.30;85.20;;;;;;6203599;23;20095;-85
2021/01/20 04:15:19;;;;;;;1.42;0.82;;;3.30;85.20;;;;;;6221824;23;20078;-84
2021/01/20 04:17:45;;;;;;;0.50;0.43;;;3.30;85.10;;;;;;6195276;23;20004;-85
2021/01/20 04:20:11;;;;;;;0.47;0.35;;;3.30;85.10;;;;;;6222666;23;20004;-85
2021/01/20 04:22:37;;;;;;;0.20;0.20;;;3.30;85.00;;;;;;6195241;23;20000;-85
2021/01/20 04:25:04;;;;;;;0.30;0.20;;;3.30;84.80;;;;;;6228884;23;20000;-85
2021/01/20 04:27:29;;;;;;;1.00;0.50;;;3.30;84.80;;;;;;6202707;23;20103;-85
2021/01/20 04:29:55;;;;;;;0.47;0.32;;;3.30;84.90;;;;;;6198684;23;20001;-85
2021/01/20 04:32:21;;;;;;;0.45;0.40;;;3.30;85.10;;;;;;6195692;23;20032;-85
2021/01/20 04:34:48;;;;;;;1.27;0.40;;;3.30;85.10;;;;;;6196500;23;20428;-86
2021/01/20 04:37:13;;;;;;;0.95;0.20;;;3.30;85.30;;;;;;6196394;23;20060;-84
2021/01/20 04:39:39;;;;;;;0.40;0.22;;;3.20;85.20;;;;;;6196626;23;20000;-86
2021/01/20 04:42:05;;;;;;;0.28;0.28;;;3.20;85.30;;;;;;6195670;23;20016;-85
2021/01/20 04:44:31;;;;;;;0.50;0.30;;;3.20;85.50;;;;;;6195213;23;20058;-85
2021/01/20 04:47:00;;;;;;;0.17;0.13;;;3.20;85.90;;;;;;6193780;23;20036;-85
2021/01/20 04:49:26;;;;;;;1.63;0.40;;;3.10;86.10;;;;;;6194057;23;20005;-83
2021/01/20 04:51:55;;;;;;;1.60;0.60;;;3.10;86.50;;;;;;6220248;23;19989;-82
2021/01/20 04:54:22;;;;;;;1.63;0.30;;;3.10;86.70;;;;;;6218481;23;20079;-81
2021/01/20 04:56:49;;;;;;;0.77;0.30;;;3.10;86.80;;;;;;6218691;23;20068;-81
2021/01/20 04:59:15;;;;;;;0.40;0.30;;;3.10;86.70;;;;;;6219120;23;19997;-81
2021/01/20 05:01:41;;;;;;;0.50;0.32;;;3.10;86.70;;;;;;6218060;23;20004;-83
2021/01/20 05:04:09;;;;;;;0.43;0.38;;;3.10;86.70;;;;;;6191864;23;20039;-81
2021/01/20 05:06:35;;;;;;;0.30;0.30;;;3.10;86.80;;;;;;6219068;23;20043;-81
2021/01/20 05:09:01;;;;;;;0.80;0.45;;;3.10;87.10;;;;;;6218696;23;20036;-81
2021/01/20 05:11:36;;;;;;;0.60;0.40;;;3.10;87.20;;;;;;6218161;23;20001;-81
2021/01/20 05:14:16;;;;;;;0.30;0.30;;;3.10;87.40;;;;;;6191807;23;20027;-81
2021/01/20 05:16:44;;;;;;;0.40;0.30;;;3.10;87.40;;;;;;6192602;23;20011;-83
2021/01/20 05:19:10;;;;;;;0.90;0.40;;;3.10;87.70;;;;;;6222434;23;19997;-80
2021/01/20 05:22:04;;;;;;;0.47;0.30;;;3.00;87.80;;;;;;6228695;23;20404;-81
2021/01/20 05:24:30;;;;;;;2.10;0.40;;;3.00;88.10;;;;;;6222411;23;20030;-83
2021/01/20 05:26:56;;;;;;;0.80;0.30;;;3.00;88.60;;;;;;6193418;23;20040;-83
2021/01/20 05:29:21;;;;;;;0.73;0.50;;;3.00;89.10;;;;;;6218560;23;20000;-83
2021/01/20 05:31:47;;;;;;;1.30;0.40;;;2.90;89.60;;;;;;6192457;23;20509;-84
2021/01/20 05:34:28;;;;;;;0.50;0.38;;;2.90;89.80;;;;;;6192333;23;20433;-84
2021/01/20 05:37:02;;;;;;;0.30;0.20;;;2.90;90.10;;;;;;6192154;23;20451;-83
2021/01/20 05:39:28;;;;;;;0.95;0.43;;;2.80;90.10;;;;;;6194683;23;20005;-84
2021/01/20 05:42:00;;;;;;;1.08;0.68;;;2.90;90.40;;;;;;6193243;23;20031;-83
2021/01/20 05:44:26;;;;;;;;;;;2.90;90.40;;;;;;6224642;23;20060;-82
2021/01/20 05:46:52;;;;;;;0.85;0.30;;;2.80;90.50;;;;;;6195581;23;19914;-85
2021/01/20 05:49:36;;;;;;;1.00;0.45;;;2.80;90.60;;;;;;6192349;23;20409;-82
2021/01/20 05:52:11;;;;;;;2.33;1.98;;;2.70;90.70;;;;;;6192582;23;20091;-83
2021/01/20 05:54:41;;;;;;;1.55;1.30;;;2.70;90.90;;;;;;6218655;23;20020;-84
2021/01/20 05:57:13;;;;;;;1.23;0.93;;;2.70;90.90;;;;;;6191882;23;20031;-83
2021/01/20 05:59:39;;;;;;;1.10;0.88;;;2.70;91.10;;;;;;6219324;23;20035;-81
2021/01/20 06:02:05;;;;;;;0.75;0.43;;;2.70;91.20;;;;;;6220834;23;20001;-84
2021/01/20 06:04:35;;;;;;;0.60;0.60;;;2.70;91.30;;;;;;6195222;23;20455;-83
2021/01/20 06:07:11;;;;;;;1.40;0.60;;;2.60;91.40;;;;;;6196028;23;20005;-82
2021/01/20 06:09:39;;;;;;;0.80;0.75;;;2.60;91.50;;;;;;6196712;23;20004;-82
2021/01/20 06:12:08;;;;;;;1.67;0.77;;;2.60;91.60;;;;;;6196543;23;20008;-83
2021/01/20 06:14:34;;;;;;;3.65;0.68;;;2.60;91.60;;;;;;6222492;23;19996;-84
2021/01/20 06:17:20;;;;;;;0.85;0.35;;;2.60;91.70;;;;;;6220861;23;20302;-83
2021/01/20 06:19:48;;;;;;;0.73;0.50;;;2.60;91.70;;;;;;6195312;23;20435;-82
2021/01/20 06:22:18;;;;;;;1.05;0.65;;;2.50;91.80;;;;;;6197522;23;20000;-82
2021/01/20 06:24:49;;;;;;;1.17;0.55;;;2.50;91.90;;;;;;6197872;23;20004;-83
2021/01/20 06:27:32;;;;;;;1.58;0.90;;;2.50;92.10;;;;;;6196830;23;20009;-82
2021/01/20 06:30:14;;;;;;;1.33;0.47;;;2.50;92.20;;;;;;6196786;23;20005;-84
2021/01/20 06:33:03;;;;;;;1.35;0.50;;;2.50;92.30;;;;;;6195462;23;20008;-83
2021/01/20 06:35:47;;;;;;;1.23;0.50;;;2.50;92.30;;;;;;6196169;23;20000;-82
2021/01/20 06:38:37;;;;;;;1.13;0.55;;;2.50;92.30;;;;;;6223092;23;20071;-83
2021/01/20 06:41:04;;;;;;;0.55;0.40;;;2.50;92.10;;;;;;6185718;23;20032;-83
2021/01/20 06:43:50;;;;;;;0.40;0.40;;;2.50;92.10;;;;;;6222725;23;19997;-83
2021/01/20 06:46:28;;;;;;;0.57;0.30;;;2.50;92.10;;;;;;6222460;23;20027;-83
2021/01/20 06:48:54;;;;;;;0.40;0.40;;;2.50;92.30;;;;;;6223057;23;19996;-84
2021/01/20 06:51:25;;;;;;;1.00;0.40;;;2.50;91.90;;;;;;6197246;23;20527;-84
2021/01/20 06:54:00;;;;;;;0.98;0.40;;;2.50;91.70;;;;;;6223727;23;20024;-83
2021/01/20 06:56:48;;;;;;;0.40;0.40;;;2.50;91.50;;;;;;6197589;23;20012;-83
2021/01/20 06:59:15;;;;;;;0.73;0.40;;;2.50;91.40;;;;;;6197231;23;20080;-83
2021/01/20 07:01:42;;;;;;;0.95;0.50;;;2.40;91.40;;;;;;6197990;23;20001;-84
2021/01/20 07:04:30;;;;;;;1.17;0.50;;;2.40;91.40;;;;;;6195465;23;20005;-84
2021/01/20 07:07:08;;;;;;;2.53;1.15;;;2.40;91.40;;;;;;6220682;23;20004;-88
2021/01/20 07:10:06;;;;;;;1.65;0.40;;;2.40;91.30;;;;;;6197193;23;20009;-85
2021/01/20 07:13:03;;;;;;;1.48;0.57;;;2.40;91.30;;;;;;6223105;23;20013;-87
2021/01/20 07:16:14;;;;;;;0.95;0.57;;;2.40;91.30;;;;;;6225839;23;20000;-83
2021/01/20 07:18:52;;;;;;;1.92;0.52;;;2.50;91.30;;;;;;6221130;23;20107;-82
2021/01/20 07:21:20;;;;;;;1.35;0.57;;;2.50;91.20;;;;;;6193150;23;20024;-83
2021/01/20 07:23:47;;;;;;;2.28;0.70;;;2.50;91.10;;;;;;6193724;23;20068;-84
2021/01/20 07:26:16;;;;;;;0.73;0.50;;;2.60;91.00;;;;;;6195170;23;20004;-86
2021/01/20 07:28:41;;;;;;;2.35;0.98;;;2.60;90.90;;;;;;6194509;23;20008;-82
2021/01/20 07:31:17;;;;;;;1.58;0.40;;;2.60;90.70;;;;;;6194856;23;20004;-85
2021/01/20 07:33:59;;;;;;;1.45;0.80;;;2.70;90.70;;;;;;6196343;23;20031;-86
2021/01/20 07:36:27;;;;;;;1.48;0.47;;;3.00;99.90;;;;;;6200561;23;20016;-85
2021/01/20 07:38:59;;;;;;;1.48;0.60;;;2.80;90.50;;;;;;6197880;23;20363;-86
2021/01/20 07:41:37;;;;;;;1.77;0.70;;;2.80;90.50;;;;;;6198019;23;20047;-87
2021/01/20 07:44:28;;;;;;;;;;;;;;;;;;;;;
2021/01/20 07:47:20;;;;;;;1.85;1.00;;;2.90;90.20;;;;;;6224546;23;20040;-84
2021/01/20 07:50:11;;;;;;;2.28;0.43;;;3.00;90.00;;;;;;6193955;23;20032;-86
2021/01/20 07:52:45;;;;;;;1.58;0.57;;;3.10;89.70;;;;;;6200462;23;20344;-84
2021/01/20 07:55:17;;;;;;;0.98;0.60;;;3.10;89.40;;;;;;6197458;23;20043;-86
2021/01/20 07:57:43;;;;;;;1.52;0.75;;;3.10;88.90;;;;;;6195263;23;20426;-82
2021/01/20 08:00:11;;;;;;;2.53;0.80;;;3.20;88.70;;;;;;6222268;23;20046;-83
2021/01/20 08:02:49;;;;;;;0.73;0.73;;;3.20;88.50;;;;;;6221315;23;20007;-83
2021/01/20 08:05:15;;;;;;;1.30;0.47;;;3.30;88.40;;;;;;6195261;23;20092;-83
2021/01/20 08:07:41;;;;;;;1.60;0.38;;;3.30;88.40;;;;;;6195810;23;20005;-83
2021/01/20 08:10:20;;;;;;;1.17;0.70;;;3.40;88.10;;;;;;6196724;23;20008;-82
2021/01/20 08:12:50;;;;;;;1.20;0.70;;;3.40;87.60;;;;;;6197779;23;20008;-81
2021/01/20 08:15:16;;;;;;;2.90;1.00;;;3.50;87.10;;;;;;6227557;23;20392;-82
2021/01/20 08:17:43;;;;;;;1.48;0.73;;;3.60;86.40;;;;;;6228769;23;20001;-81
2021/01/20 08:20:12;;;;;;;1.25;0.52;;;3.70;86.20;;;;;;6226980;23;20004;-81
2021/01/20 08:22:44;;;;;;;1.85;0.50;;;3.70;85.90;;;;;;6198963;23;20027;-82
2021/01/20 08:25:10;;;;;;;1.00;0.60;;;3.80;85.30;;;;;;6229373;23;20004;-82
2021/01/20 08:27:37;;;;;;;6.80;1.25;;;3.90;84.80;;;;;;6202538;23;20015;-82
2021/01/20 08:30:05;;;;;;;2.42;1.20;;;3.90;84.60;;;;;;6228798;23;20467;-82
2021/01/20 08:32:32;;;;;;;1.88;1.02;;;4.00;84.20;;;;;;6227126;23;20001;-82
2021/01/20 08:34:59;;;;;;;5.72;1.55;;;4.10;83.60;;;;;;6204121;23;20012;-82
2021/01/20 08:37:39;;;;;;;5.07;1.40;;;4.30;86.20;;;;;;6237009;23;19996;-82
2021/01/20 08:40:07;;;;;;;6.30;1.83;;;4.30;82.90;;;;;;6224009;23;19996;-82
2021/01/20 08:42:36;;;;;;;2.58;1.10;;;4.40;82.10;;;;;;6195633;23;20000;-82
2021/01/20 08:45:19;;;;;;;3.42;1.63;;;4.50;82.00;;;;;;6197081;23;20008;-82
2021/01/20 08:47:55;;;;;;;3.63;1.67;;;4.50;81.00;;;;;;6224841;23;20011;-83
2021/01/20 08:50:34;;;;;;;3.08;1.50;;;4.70;80.60;;;;;;6224390;23;20035;-84
2021/01/20 08:53:00;;;;;;;2.38;1.35;;;4.80;80.30;;;;;;6225341;23;20401;-85
2021/01/20 08:55:31;;;;;;;1.88;1.23;;;4.90;80.10;;;;;;6199434;23;20064;-84
2021/01/20 08:58:33;;;;;;;10.30;1.27;;;5.00;79.20;;;;;;6201310;23;20397;-83
2021/01/20 09:01:09;;;;;;;3.72;1.13;;;5.10;78.80;;;;;;6147995;23;20014;-84
2021/01/20 09:03:36;;;;;;;3.33;1.05;;;5.20;77.90;;;;;;6225076;23;20012;-85
2021/01/20 09:06:04;;;;;;;2.00;1.00;;;5.50;86.90;;;;;;6204440;23;20031;-86
2021/01/20 09:08:31;;;;;;;4.82;1.38;;;5.40;76.80;;;;;;6231199;23;20000;-84
2021/01/20 09:10:58;;;;;;;4.82;1.25;;;5.60;76.10;;;;;;6230338;23;20012;-85
2021/01/20 09:13:24;;;;;;;2.85;1.10;;;5.70;75.70;;;;;;6228414;23;20020;-85
2021/01/20 09:15:52;;;;;;;2.03;1.10;;;5.90;75.10;;;;;;6201734;23;20015;-83
2021/01/20 09:18:19;;;;;;;5.03;1.10;;;6.20;74.50;;;;;;6200838;23;20000;-84
2021/01/20 09:20:46;;;;;;;1.73;1.15;;;6.30;73.30;;;;;;6228932;23;19985;-84
2021/01/20 09:23:12;;;;;;;1.60;0.68;;;6.50;72.20;;;;;;6200606;23;20012;-84
2021/01/20 09:25:38;;;;;;;1.45;0.73;;;6.70;71.90;;;;;;6225592;23;20001;-85
2021/01/20 09:28:04;;;;;;;0.90;0.77;;;6.80;71.30;;;;;;6198777;23;20020;-83
2021/01/20 09:30:30;;;;;;;1.35;0.80;;;7.10;90.50;;;;;;6224595;23;20341;-83
2021/01/20 09:32:56;;;;;;;2.40;1.30;;;7.30;90.90;;;;;;6223997;23;20005;-82
2021/01/20 09:35:22;;;;;;;2.13;1.30;;;7.40;91.60;;;;;;6197931;23;20028;-83
2021/01/20 09:37:49;;;;;;;2.35;1.58;;;7.50;91.70;;;;;;6225159;23;20003;-83
2021/01/20 09:40:16;;;;;;;1.92;1.23;;;;;;;;;;6196866;23;20318;-83
2021/01/20 09:42:43;;;;;;;1.95;1.10;;;;;;;;;;6223912;23;20443;-83
2021/01/20 09:45:11;;;;;;;7.45;2.58;;;;;;;;;;6223187;23;20011;-82
2021/01/20 09:47:38;;;;;;;2.60;2.00;;;8.00;95.20;;;;;;6221904;23;20088;-82
2021/01/20 09:50:06;;;;;;;2.28;1.55;;;8.00;67.70;;;;;;6222767;23;20083;-82
2021/01/20 09:52:32;;;;;;;13.02;7.38;;;8.10;67.00;;;;;;6223532;23;20005;-81
2021/01/20 09:54:58;;;;;;;7.45;4.03;;;8.30;65.50;;;;;;6197081;23;20009;-82
2021/01/20 09:57:23;;;;;;;8.73;3.58;;;8.20;64.00;;;;;;6226386;23;19996;-83
2021/01/20 09:59:50;;;;;;;9.35;5.13;;;8.30;64.70;;;;;;6225798;23;20444;-82
2021/01/20 10:02:16;;;;;;;5.43;3.03;;;8.40;63.80;;;;;;6233267;23;20001;-84
2021/01/20 10:04:42;;;;;;;3.92;2.40;;;8.50;63.00;;;;;;6200698;23;20011;-83
2021/01/20 10:07:08;;;;;;;1.73;1.35;;;8.60;62.40;;;;;;6198041;23;20009;-83
2021/01/20 10:09:37;;;;;;;1.83;1.17;;;8.70;62.30;;;;;;6221598;23;20023;-83
2021/01/20 10:12:04;;;;;;;2.30;1.00;;;8.90;62.10;;;;;;6221936;23;20001;-83
2021/01/20 10:14:29;;;;;;;3.38;0.88;;;8.90;60.60;;;;;;6197155;23;20032;-82
2021/01/20 10:16:55;;;;;;;3.25;1.00;;;9.00;59.50;;;;;;6224610;23;20082;-82
2021/01/20 10:19:21;;;;;;;1.08;0.63;;;9.00;59.30;;;;;;6221282;23;20055;-82
2021/01/20 10:21:47;;;;;;;1.23;0.70;;;9.00;58.50;;;;;;6221543;23;20143;-83
2021/01/20 10:24:16;;;;;;;1.27;0.73;;;9.10;59.60;;;;;;6195728;23;20111;-85
2021/01/20 10:26:44;;;;;;;0.80;0.50;;;9.20;58.90;;;;;;6197249;23;20040;-81
2021/01/20 10:29:10;;;;;;;2.25;0.73;;;9.30;57.30;;;;;;6199673;23;20028;-84
2021/01/20 10:31:38;;;;;;;1.25;0.60;;;9.30;57.00;;;;;;6230291;23;20008;-83
2021/01/20 10:34:05;;;;;;;1.25;0.57;;;9.40;57.40;;;;;;6210195;23;20001;-84
2021/01/20 10:36:31;;;;;;;1.83;0.90;;;9.40;56.40;;;;;;6210045;23;20020;-84
2021/01/20 10:38:57;;;;;;;1.80;0.57;;;9.50;56.80;;;;;;6207528;23;20027;-83
2021/01/20 10:41:24;;;;;;;3.53;1.10;;;9.60;56.50;;;;;;6206967;23;20004;-85
2021/01/20 10:43:51;;;;;;;4.88;0.73;;;9.70;56.30;;;;;;6207056;23;20058;-82
2021/01/20 10:46:17;;;;;;;1.05;0.93;;;9.50;56.10;;;;;;6226944;23;20062;-83
2021/01/20 10:48:44;;;;;;;2.00;0.88;;;9.60;56.70;;;;;;6227128;23;20000;-83
2021/01/20 10:51:10;;;;;;;1.45;0.73;;;9.60;55.70;;;;;;6200895;23;20088;-84
2021/01/20 10:53:40;;;;;;;2.72;1.65;;;9.50;55.60;;;;;;6230552;23;20420;-81
2021/01/20 10:56:09;;;;;;;3.33;1.10;;;9.40;55.70;;;;;;6204468;23;20012;-82
2021/01/20 10:58:35;;;;;;;3.25;1.00;;;9.30;56.20;;;;;;6203679;23;20001;-84
2021/01/20 11:01:03;;;;;;;2.30;0.90;;;9.20;56.00;;;;;;6204135;23;20005;-82
2021/01/20 11:03:29;;;;;;;3.85;0.80;;;9.00;56.60;;;;;;6204251;23;20175;-82
2021/01/20 11:05:55;;;;;;;1.08;0.80;;;9.00;56.60;;;;;;6204251;23;20008;-81
2021/01/20 11:08:21;;;;;;;1.50;0.70;;;9.10;56.50;;;;;;6204329;23;20032;-83
2021/01/20 11:10:47;;;;;;;1.88;0.40;;;9.10;56.60;;;;;;6205782;23;20010;-84
2021/01/20 11:13:13;;;;;;;1.85;0.93;;;9.30;56.90;;;;;;6207364;23;20040;-82
2021/01/20 11:15:45;;;;;;;3.60;0.77;;;9.40;56.20;;;;;;6206694;23;20001;-82
2021/01/20 11:18:13;;;;;;;3.65;1.00;;;9.40;55.50;;;;;;6207895;23;20001;-82
2021/01/20 11:20:40;;;;;;;2.75;1.30;;;9.40;55.70;;;;;;6207342;23;20008;-82
2021/01/20 11:23:11;;;;;;;3.15;2.15;;;9.40;55.80;;;;;;6207918;23;20016;-83
2021/01/20 11:25:42;;;;;;;2.15;1.83;;;9.40;55.60;;;;;;6209740;23;20012;-82
2021/01/20 11:28:08;;;;;;;1.60;1.50;;;9.50;55.40;;;;;;6241513;22;20019;-86
2021/01/20 11:30:34;;;;;;;6.88;3.78;;;9.50;54.50;;;;;;6214983;23;20000;-84
2021/01/20 11:33:00;;;;;;;8.75;2.95;;;9.50;54.30;;;;;;6210271;23;20004;-82
2021/01/20 11:35:26;;;;;;;6.05;2.55;;;9.50;55.80;;;;;;6207018;23;20017;-81
2021/01/20 11:37:56;;;;;;;7.07;2.50;;;9.50;57.30;;;;;;6206951;23;20055;-84
2021/01/20 11:40:33;;;;;;;10.25;2.63;;;9.40;58.70;;;;;;6206222;23;20008;-82
2021/01/20 11:43:00;;;;;;;5.13;2.10;;;9.40;59.40;;;;;;6205579;23;20064;-83
2021/01/20 11:45:30;;;;;;;3.95;2.00;;;9.40;60.10;;;;;;6206141;23;20064;-84
2021/01/20 11:47:55;;;;;;;4.97;1.95;;;9.50;60.10;;;;;;6205861;23;20155;-82
2021/01/20 11:50:23;;;;;;;2.30;1.83;;;9.50;59.70;;;;;;6206305;23;20000;-83
2021/01/20 11:52:50;;;;;;;3.05;1.60;;;9.60;59.40;;;;;;6206165;23;20004;-83
2021/01/20 11:55:16;;;;;;;3.80;1.65;;;9.60;59.50;;;;;;6205279;23;20034;-84
2021/01/20 11:57:42;;;;;;;3.50;1.50;;;9.70;59.30;;;;;;6205993;23;20001;-83
2021/01/20 12:00:09;;;;;;;4.82;2.03;;;9.80;59.20;;;;;;6212172;23;20000;-83
2021/01/20 12:02:39;;;;;;;4.18;1.50;;;9.90;59.40;;;;;;6213445;23;19992;-85
2021/01/20 12:05:08;;;;;;;8.65;3.30;;;10.00;58.30;;;;;;6209197;23;20009;-84
2021/01/20 12:07:37;;;;;;;8.10;2.92;;;10.20;57.60;;;;;;6208956;23;20028;-85
2021/01/20 12:10:05;;;;;;;9.40;2.60;;;10.20;56.60;;;;;;6207294;23;20001;-85
2021/01/20 12:12:31;;;;;;;3.53;1.55;;;10.20;57.00;;;;;;6205636;23;20009;-86
2021/01/20 12:14:57;;;;;;;2.72;1.70;;;10.20;57.30;;;;;;6205533;23;19996;-88
2021/01/20 12:17:26;;;;;;;3.83;1.77;;;10.20;56.80;;;;;;6205242;23;20028;-86
2021/01/20 12:19:55;;;;;;;4.45;1.85;;;10.30;56.90;;;;;;6203638;23;20013;-85
2021/01/20 12:22:20;;;;;;;4.82;2.10;;;10.30;56.50;;;;;;6203543;23;20074;-86
2021/01/20 12:24:46;;;;;;;2.25;1.45;;;10.30;56.40;;;;;;6204059;23;20008;-87
2021/01/20 12:27:12;;;;;;;13.82;5.22;;;10.20;56.70;;;;;;6203346;23;20008;-87
2021/01/20 12:29:38;;;;;;;9.50;4.20;;;10.10;57.20;;;;;;6204460;23;20057;-87
2021/01/20 12:32:05;;;;;;;11.13;5.30;;;10.10;57.80;;;;;;6204552;23;20004;-88
2021/01/20 12:34:31;;;;;;;8.88;4.22;;;10.10;57.80;;;;;;6204863;23;20011;-88
2021/01/20 12:36:57;;;;;;;4.95;3.03;;;10.20;57.80;;;;;;6207901;23;19997;-87
2021/01/20 12:39:23;;;;;;;5.20;2.42;;;10.30;57.70;;;;;;6215450;22;20024;-91
2021/01/20 12:41:49;;;;;;;4.75;2.85;;;10.40;57.80;;;;;;6214240;23;20196;-84
2021/01/20 12:44:15;;;;;;;4.03;2.13;;;10.70;58.90;;;;;;6235003;23;20028;-83
2021/01/20 12:46:43;;;;;;;8.20;3.22;;;;;;;;;;6232915;23;19995;-84
2021/01/20 12:49:09;;;;;;;4.90;2.72;;;11.70;54.60;;;;;;6231740;23;20003;-85
2021/01/20 12:51:37;;;;;;;3.45;2.17;;;12.00;54.50;;;;;;6206460;23;20023;-83
2021/01/20 12:54:07;;;;;;;5.70;2.20;;;12.40;53.70;;;;;;6206427;23;20027;-84
2021/01/20 12:56:33;;;;;;;4.75;2.47;;;12.70;53.80;;;;;;6205720;23;19992;-86
2021/01/20 12:58:59;;;;;;;7.03;2.90;;;13.20;52.80;;;;;;6206416;23;20007;-84
2021/01/20 13:01:27;;;;;;;5.90;2.28;;;13.20;51.00;;;;;;6206192;23;20087;-82
2021/01/20 13:03:53;;;;;;;3.70;2.30;;;13.60;52.50;;;;;;6205052;23;20004;-82
2021/01/20 13:06:19;;;;;;;3.67;2.35;;;14.10;51.70;;;;;;6205246;23;20001;-82
2021/01/20 13:08:45;;;;;;;3.08;2.30;;;14.40;49.50;;;;;;6204961;23;20113;-83
2021/01/20 13:11:10;;;;;;;7.35;2.38;;;14.30;49.00;;;;;;6203261;23;20001;-82